Time;durP1;ratioP1;P1;durP2;ratioP2;P2;SDS_P1;SDS_P2;PMS_P1;PMS_P2;Temp;Humidity;BMP_temperature;BMP_pressure;BME280_temperature;BME280_humidity;BME280_pressure;Samples;Min_cycle;Max_cycle;Signal;HPM_P1;HPM_P2
2022/03/07 00:00:49;;;;;;;10.48;7.37;;;2.00;99.90;;;;;;1839559;78;21129;-75
2022/03/07 00:03:16;;;;;;;8.65;7.10;;;1.80;99.90;;;;;;1839425;78;21137;-76
2022/03/07 00:05:44;;;;;;;11.00;7.33;;;1.80;99.90;;;;;;1839471;78;21047;-75
2022/03/07 00:08:11;;;;;;;10.15;7.17;;;1.80;99.90;;;;;;1839462;78;21079;-75
2022/03/07 00:10:38;;;;;;;9.43;6.60;;;1.80;99.90;;;;;;1839417;78;21134;-75
2022/03/07 00:13:05;;;;;;;11.40;7.75;;;1.80;99.90;;;;;;1839507;78;21565;-75
2022/03/07 00:15:33;;;;;;;11.35;7.12;;;1.80;99.90;;;;;;1839281;78;21125;-75
2022/03/07 00:18:00;;;;;;;12.33;7.95;;;1.80;99.90;;;;;;1838882;78;21196;-76
2022/03/07 00:20:27;;;;;;;8.83;6.67;;;1.70;99.90;;;;;;1838967;78;21137;-75
2022/03/07 00:22:55;;;;;;;11.15;7.65;;;1.70;99.90;;;;;;1838915;78;21059;-74
2022/03/07 00:25:22;;;;;;;12.78;7.17;;;1.70;99.90;;;;;;1838871;78;21079;-76
2022/03/07 00:27:49;;;;;;;11.55;7.72;;;1.70;99.90;;;;;;1838720;78;21058;-75
2022/03/07 00:30:18;;;;;;;12.90;6.92;;;1.70;99.90;;;;;;1838745;78;21050;-75
2022/03/07 00:32:46;;;;;;;13.35;7.22;;;1.70;99.90;;;;;;1838897;78;21144;-76
2022/03/07 00:35:13;;;;;;;9.90;7.22;;;1.70;99.90;;;;;;1839052;78;21056;-76
2022/03/07 00:37:40;;;;;;;12.00;6.75;;;1.70;99.90;;;;;;1838740;78;21054;-75
2022/03/07 00:40:09;;;;;;;11.57;7.65;;;1.70;99.90;;;;;;1838913;78;21136;-76
2022/03/07 00:42:37;;;;;;;9.75;7.50;;;1.70;99.90;;;;;;1838937;78;21087;-76
2022/03/07 00:45:07;;;;;;;9.43;7.08;;;1.60;99.90;;;;;;1838831;78;21479;-75
2022/03/07 00:47:35;;;;;;;8.40;6.00;;;1.60;99.90;;;;;;1839134;77;21039;-76
2022/03/07 00:50:03;;;;;;;11.00;6.20;;;1.60;99.90;;;;;;1838889;77;21609;-76
2022/03/07 00:52:31;;;;;;;9.05;6.37;;;1.60;99.90;;;;;;1838897;78;21067;-75
2022/03/07 00:54:58;;;;;;;10.90;6.58;;;1.60;99.90;;;;;;1838850;78;21467;-76
2022/03/07 00:57:25;;;;;;;13.48;6.83;;;1.60;99.90;;;;;;1838916;78;21538;-75
2022/03/07 00:59:53;;;;;;;8.33;6.03;;;1.60;99.90;;;;;;1838820;78;21079;-75
2022/03/07 01:02:21;;;;;;;9.00;6.05;;;1.50;99.90;;;;;;1838915;78;21064;-75
2022/03/07 01:04:48;;;;;;;7.72;5.80;;;1.60;99.90;;;;;;1838800;78;21128;-76
2022/03/07 01:07:15;;;;;;;12.73;6.42;;;1.50;99.90;;;;;;1838755;78;21067;-76
2022/03/07 01:09:43;;;;;;;6.97;5.95;;;1.50;99.90;;;;;;1838749;78;21102;-76
2022/03/07 01:12:10;;;;;;;7.50;5.67;;;1.50;99.90;;;;;;1838838;78;21563;-74
2022/03/07 01:14:37;;;;;;;8.13;5.95;;;1.40;99.90;;;;;;1838902;77;21062;-75
2022/03/07 01:17:05;;;;;;;10.82;6.45;;;1.40;99.90;;;;;;1838757;78;21051;-75
2022/03/07 01:19:32;;;;;;;7.50;5.37;;;1.40;99.90;;;;;;1838859;78;21144;-76
2022/03/07 01:21:59;;;;;;;10.20;5.72;;;1.40;99.90;;;;;;1838852;78;21059;-75
2022/03/07 01:24:28;;;;;;;23.73;6.03;;;1.30;99.90;;;;;;1838814;78;21444;-76
2022/03/07 01:27:15;;;;;;;5.87;5.20;;;1.30;99.90;;;;;;1838774;78;21082;-75
2022/03/07 01:29:42;;;;;;;8.13;5.40;;;1.20;99.90;;;;;;1777434;79;21479;-75
2022/03/07 01:32:09;;;;;;;8.43;5.53;;;1.20;99.90;;;;;;1780044;80;21124;-75
2022/03/07 01:34:37;;;;;;;8.78;5.87;;;1.30;99.90;;;;;;1776220;80;21106;-74
2022/03/07 01:37:04;;;;;;;9.20;5.60;;;1.20;99.90;;;;;;1774298;81;21074;-75
2022/03/07 01:39:31;;;;;;;7.03;5.33;;;1.20;99.90;;;;;;1777348;81;21067;-75
2022/03/07 01:41:59;;;;;;;9.65;5.42;;;1.20;99.90;;;;;;1767348;80;21484;-75
2022/03/07 01:44:29;;;;;;;7.05;5.35;;;1.20;99.90;;;;;;1761381;80;21097;-75
2022/03/07 01:46:58;;;;;;;8.08;5.78;;;1.20;99.90;;;;;;1765954;79;21640;-75
2022/03/07 01:49:25;;;;;;;9.00;5.53;;;1.20;99.90;;;;;;1766299;79;21163;-74
2022/03/07 01:51:53;;;;;;;9.23;5.60;;;1.20;99.90;;;;;;1762475;80;21491;-74
2022/03/07 01:54:22;;;;;;;7.95;5.35;;;1.20;99.90;;;;;;1768522;80;21140;-74
2022/03/07 01:56:51;;;;;;;7.60;5.28;;;1.10;99.90;;;;;;1776756;80;21186;-75
2022/03/07 01:59:20;;;;;;;8.23;5.33;;;1.10;99.90;;;;;;1771553;80;21482;-75
2022/03/07 02:01:48;;;;;;;9.73;5.15;;;1.10;99.90;;;;;;1768546;80;21130;-75
2022/03/07 02:04:15;;;;;;;7.17;4.80;;;1.00;99.90;;;;;;1772438;81;21075;-74
2022/03/07 02:06:42;;;;;;;8.03;4.83;;;1.00;99.90;;;;;;1769130;80;21152;-74
2022/03/07 02:09:10;;;;;;;5.72;4.72;;;0.90;99.90;;;;;;1759374;80;21495;-75
2022/03/07 02:11:38;;;;;;;10.85;5.35;;;0.90;99.90;;;;;;1777867;81;21475;-75
2022/03/07 02:14:12;;;;;;;6.03;5.17;;;0.90;99.90;;;;;;1766071;80;21482;-75
2022/03/07 02:16:40;;;;;;;7.80;5.10;;;0.90;99.90;;;;;;1772343;79;21480;-74
2022/03/07 02:19:07;;;;;;;7.83;5.25;;;0.80;99.90;;;;;;1779568;80;21075;-75
2022/03/07 02:21:35;;;;;;;7.25;4.80;;;0.80;99.90;;;;;;1753176;80;21082;-74
2022/03/07 02:24:02;;;;;;;7.17;4.67;;;0.70;99.90;;;;;;1773208;81;21098;-74
2022/03/07 02:26:30;;;;;;;7.75;5.33;;;0.60;99.90;;;;;;1767682;80;21179;-75
2022/03/07 02:28:58;;;;;;;5.50;4.90;;;0.60;99.90;;;;;;1776966;80;21542;-75
2022/03/07 02:31:25;;;;;;;7.47;5.78;;;0.50;99.90;;;;;;1759877;80;21171;-77
2022/03/07 02:33:52;;;;;;;11.05;6.12;;;0.40;99.90;;;;;;1766849;81;21105;-76
2022/03/07 02:36:20;;;;;;;9.33;5.78;;;0.30;99.90;;;;;;1776987;80;21572;-75
2022/03/07 02:38:47;;;;;;;8.25;5.45;;;0.30;99.90;;;;;;1764857;80;21078;-75
2022/03/07 02:41:15;;;;;;;6.42;4.92;;;0.30;99.90;;;;;;1759192;80;21165;-76
2022/03/07 02:43:42;;;;;;;9.35;5.95;;;0.30;99.90;;;;;;1763187;80;21188;-76
2022/03/07 02:46:09;;;;;;;6.70;5.45;;;0.30;99.90;;;;;;1773453;80;21266;-75
2022/03/07 02:48:36;;;;;;;8.15;5.37;;;0.20;99.90;;;;;;1759007;81;21117;-75
2022/03/07 02:51:04;;;;;;;6.60;5.30;;;0.00;99.90;;;;;;1764473;79;21494;-75
2022/03/07 02:53:31;;;;;;;8.70;5.78;;;-0.10;99.90;;;;;;1759365;81;21188;-75
2022/03/07 02:55:58;;;;;;;7.17;5.50;;;-0.10;99.90;;;;;;1765331;79;21466;-76
2022/03/07 02:58:26;;;;;;;9.38;5.65;;;-0.10;99.90;;;;;;1773068;80;21102;-75
2022/03/07 03:00:53;;;;;;;9.05;5.42;;;-0.20;99.90;;;;;;1778488;80;21151;-75
2022/03/07 03:03:20;;;;;;;6.15;5.08;;;-0.30;99.90;;;;;;1779076;80;21201;-75
2022/03/07 03:05:47;;;;;;;6.97;5.15;;;-0.30;99.90;;;;;;1789143;80;21065;-73
2022/03/07 03:08:16;;;;;;;9.90;6.00;;;-0.40;99.90;;;;;;1782091;80;21110;-74
2022/03/07 03:10:44;;;;;;;10.10;5.12;;;-0.50;99.90;;;;;;1764798;79;21180;-75
2022/03/07 03:13:11;;;;;;;7.58;5.62;;;-0.60;99.90;;;;;;1769330;79;21511;-75
2022/03/07 03:15:38;;;;;;;8.58;5.85;;;-0.60;99.90;;;;;;1770390;80;21102;-75
2022/03/07 03:18:06;;;;;;;7.25;5.35;;;-0.70;99.90;;;;;;1755539;80;21163;-75
2022/03/07 03:20:33;;;;;;;7.55;5.60;;;-0.60;99.90;;;;;;1766347;80;21055;-75
2022/03/07 03:23:00;;;;;;;9.93;5.50;;;-0.70;99.90;;;;;;1766749;79;21212;-74
2022/03/07 03:25:28;;;;;;;9.30;6.12;;;-0.60;99.90;;;;;;1764210;79;21083;-75
2022/03/07 03:27:55;;;;;;;7.45;5.67;;;-0.60;99.90;;;;;;1774241;79;21110;-74
2022/03/07 03:30:22;;;;;;;8.03;5.37;;;-0.60;99.90;;;;;;1774664;80;21184;-74
2022/03/07 03:32:50;;;;;;;8.68;5.87;;;-0.70;99.90;;;;;;1760926;79;21077;-77
2022/03/07 03:35:17;;;;;;;12.60;6.30;;;-0.70;99.90;;;;;;1764803;80;21096;-77
2022/03/07 03:37:44;;;;;;;7.72;5.85;;;-0.60;99.90;;;;;;1775939;79;21184;-75
2022/03/07 03:40:12;;;;;;;11.65;5.87;;;-0.60;99.90;;;;;;1772092;80;21078;-75
2022/03/07 03:42:40;;;;;;;9.70;5.97;;;-0.60;99.90;;;;;;1771995;80;21118;-75
2022/03/07 03:45:12;;;;;;;7.62;6.28;;;-0.60;99.90;;;;;;1789100;80;21077;-76
2022/03/07 03:47:41;;;;;;;7.07;6.03;;;-0.70;99.90;;;;;;1756396;79;21109;-75
2022/03/07 03:50:10;;;;;;;8.88;5.97;;;-0.70;99.90;;;;;;1753420;81;21105;-75
2022/03/07 03:52:38;;;;;;;7.08;5.87;;;-0.70;99.90;;;;;;1775532;80;21153;-75
2022/03/07 03:55:06;;;;;;;9.20;5.85;;;-0.70;99.90;;;;;;1769798;80;21093;-75
2022/03/07 03:57:34;;;;;;;7.55;5.92;;;-0.70;99.90;;;;;;1778515;80;21172;-77
2022/03/07 04:00:01;;;;;;;9.25;6.28;;;-0.70;99.90;;;;;;1764898;79;21104;-75
2022/03/07 04:02:28;;;;;;;7.58;6.30;;;-0.70;99.90;;;;;;1773071;79;21098;-73
2022/03/07 04:04:56;;;;;;;9.00;6.22;;;-0.70;99.90;;;;;;1778353;80;21075;-73
2022/03/07 04:07:23;;;;;;;8.48;6.33;;;-0.80;99.90;;;;;;1765771;80;21065;-74
2022/03/07 04:09:50;;;;;;;9.35;6.47;;;-0.80;99.90;;;;;;1770765;80;21508;-76
2022/03/07 04:12:17;;;;;;;11.00;7.17;;;-0.70;99.90;;;;;;1773965;79;21211;-74
2022/03/07 04:14:45;;;;;;;10.90;7.12;;;-0.70;99.90;;;;;;1777178;80;21092;-74
2022/03/07 04:17:12;;;;;;;8.43;5.85;;;-0.80;99.90;;;;;;1765171;79;21089;-73
2022/03/07 04:19:40;;;;;;;11.45;6.40;;;-0.80;99.90;;;;;;1759431;80;21189;-74
2022/03/07 04:22:07;;;;;;;9.83;7.03;;;-0.80;99.90;;;;;;1763061;80;21105;-73
2022/03/07 04:24:35;;;;;;;12.50;6.15;;;-0.90;99.90;;;;;;1769811;79;21467;-74
2022/03/07 04:27:03;;;;;;;8.30;6.53;;;-1.00;99.90;;;;;;1772492;79;21584;-73
2022/03/07 04:29:30;;;;;;;11.33;7.33;;;-1.00;99.90;;;;;;1767987;80;21119;-76
2022/03/07 04:31:57;;;;;;;8.13;6.78;;;-1.00;99.90;;;;;;1760554;81;21244;-74
2022/03/07 04:34:25;;;;;;;9.28;6.90;;;-1.10;99.90;;;;;;1768410;80;21136;-76
2022/03/07 04:36:52;;;;;;;8.98;6.70;;;-1.10;99.90;;;;;;1768846;80;21102;-73
2022/03/07 04:39:19;;;;;;;8.65;6.75;;;-1.30;99.90;;;;;;1768738;80;21075;-74
2022/03/07 04:41:47;;;;;;;11.43;7.70;;;-1.10;99.90;;;;;;1780789;80;21102;-74
2022/03/07 04:44:14;;;;;;;7.95;6.75;;;-1.30;99.90;;;;;;1777867;81;21498;-74
2022/03/07 04:46:41;;;;;;;11.18;6.35;;;-1.30;99.90;;;;;;1762816;80;21113;-74
2022/03/07 04:49:11;;;;;;;8.40;6.53;;;-1.30;99.90;;;;;;1759400;80;21509;-76
2022/03/07 04:51:39;;;;;;;15.30;8.40;;;-1.20;99.90;;;;;;1778882;78;21152;-74
2022/03/07 04:54:07;;;;;;;12.15;7.65;;;-1.20;99.90;;;;;;1765772;79;21181;-75
2022/03/07 04:56:34;;;;;;;9.70;7.53;;;-1.20;99.90;;;;;;1777290;79;21592;-75
2022/03/07 04:59:01;;;;;;;9.65;7.42;;;-1.30;99.90;;;;;;1777754;80;21187;-77
2022/03/07 05:01:29;;;;;;;8.58;7.10;;;-1.40;99.90;;;;;;1767395;79;21164;-74
2022/03/07 05:03:56;;;;;;;9.33;7.03;;;-1.30;99.90;;;;;;1766253;80;21185;-75
2022/03/07 05:06:23;;;;;;;12.35;7.83;;;-1.40;99.90;;;;;;1774336;80;21093;-75
2022/03/07 05:08:50;;;;;;;10.50;6.78;;;-1.30;99.90;;;;;;1761131;81;21109;-74
2022/03/07 05:11:18;;;;;;;11.80;7.97;;;-1.40;99.90;;;;;;1759092;80;21098;-74
2022/03/07 05:13:45;;;;;;;10.43;8.13;;;-1.40;99.90;;;;;;1774691;79;21633;-75
2022/03/07 05:16:12;;;;;;;11.08;7.40;;;-1.40;99.90;;;;;;1760587;79;21098;-74
2022/03/07 05:18:40;;;;;;;11.33;7.92;;;-1.40;99.90;;;;;;1772537;80;21489;-74
2022/03/07 05:21:07;;;;;;;14.35;8.53;;;-1.40;99.90;;;;;;1777444;79;21102;-74
2022/03/07 05:23:34;;;;;;;11.38;8.20;;;-1.40;99.90;;;;;;1769792;80;21568;-74
2022/03/07 05:26:01;;;;;;;11.65;7.87;;;-1.40;99.90;;;;;;1760051;80;21144;-73
2022/03/07 05:28:29;;;;;;;12.82;8.58;;;-1.50;99.90;;;;;;1759150;81;21131;-75
2022/03/07 05:30:56;;;;;;;13.40;8.15;;;-1.40;99.90;;;;;;1759596;80;21074;-76
2022/03/07 05:33:24;;;;;;;15.53;7.60;;;-1.30;99.90;;;;;;1767098;79;21236;-74
2022/03/07 05:35:51;;;;;;;15.00;8.30;;;-1.30;99.90;;;;;;1773210;79;21107;-74
2022/03/07 05:38:18;;;;;;;11.97;8.73;;;-1.20;99.90;;;;;;1754068;80;21145;-73
2022/03/07 05:40:46;;;;;;;12.63;8.95;;;-1.30;99.90;;;;;;1772878;80;21591;-74
2022/03/07 05:43:13;;;;;;;11.55;8.15;;;-1.20;99.90;;;;;;1770363;80;21201;-75
2022/03/07 05:45:40;;;;;;;12.58;9.10;;;-1.10;99.90;;;;;;1758482;79;21506;-75
2022/03/07 05:48:08;;;;;;;12.88;9.00;;;-1.10;99.90;;;;;;1761693;80;21070;-74
2022/03/07 05:50:37;;;;;;;11.73;8.45;;;-1.20;99.90;;;;;;1783710;79;21514;-75
2022/03/07 05:53:04;;;;;;;12.78;8.38;;;-1.00;99.90;;;;;;1761725;81;21475;-75
2022/03/07 05:55:31;;;;;;;12.55;9.03;;;-1.00;99.90;;;;;;1776304;79;21141;-71
2022/03/07 05:58:04;;;;;;;13.00;9.50;;;-1.00;99.90;;;;;;1774906;79;21094;-71
2022/03/07 06:00:29;;;;;;;10.18;7.70;;;-0.90;99.90;;;;;;1813220;79;21101;-72
2022/03/07 06:02:56;;;;;;;10.25;8.20;;;-0.80;99.90;;;;;;1782104;79;21109;-70
2022/03/07 06:05:24;;;;;;;12.28;9.05;;;-0.80;99.90;;;;;;1793497;80;21058;-71
2022/03/07 06:07:51;;;;;;;12.28;8.73;;;-0.80;99.90;;;;;;1817424;78;21233;-71
2022/03/07 06:10:18;;;;;;;17.82;8.85;;;-0.70;99.90;;;;;;1820342;78;21184;-70
2022/03/07 06:12:46;;;;;;;12.28;7.83;;;-0.80;99.90;;;;;;1833185;77;21153;-70
2022/03/07 06:15:13;;;;;;;11.38;8.28;;;-0.70;99.90;;;;;;1825638;78;21138;-71
2022/03/07 06:17:51;;;;;;;13.65;9.20;;;-0.70;99.90;;;;;;1820880;77;21174;-71
2022/03/07 06:20:19;;;;;;;11.70;8.70;;;-0.70;99.90;;;;;;1826330;77;21125;-72
2022/03/07 06:22:47;;;;;;;9.90;7.90;;;-0.60;99.90;;;;;;1840049;77;21571;-73
2022/03/07 06:25:14;;;;;;;14.05;8.93;;;-0.60;99.90;;;;;;1829733;77;21160;-72
2022/03/07 06:27:41;;;;;;;17.45;9.18;;;-0.60;99.90;;;;;;1834608;77;21290;-72
2022/03/07 06:30:09;;;;;;;11.18;7.92;;;-0.50;99.90;;;;;;1827563;77;21066;-70
2022/03/07 06:32:36;;;;;;;10.23;8.18;;;-0.40;99.90;;;;;;1821112;77;21490;-72
2022/03/07 06:35:05;;;;;;;8.90;7.47;;;-0.40;99.90;;;;;;1827627;77;21122;-72
2022/03/07 06:37:32;;;;;;;12.82;9.00;;;-0.40;99.90;;;;;;1828879;77;21149;-71
2022/03/07 06:39:59;;;;;;;14.40;8.60;;;-0.30;99.90;;;;;;1832546;77;21222;-71
2022/03/07 06:42:27;;;;;;;8.93;7.40;;;-0.40;99.90;;;;;;1821049;78;21556;-73
2022/03/07 06:44:54;;;;;;;15.23;8.68;;;-0.40;99.90;;;;;;1824669;77;21144;-79
2022/03/07 06:47:21;;;;;;;12.85;8.63;;;-0.40;99.90;;;;;;1810271;78;21488;-71
2022/03/07 06:49:55;;;;;;;11.85;8.38;;;-0.30;99.90;;;;;;1827891;77;21261;-71
2022/03/07 06:52:18;;;;;;;11.80;7.53;;;-0.40;99.90;;;;;;1817857;77;21105;-71
2022/03/07 06:54:45;;;;;;;8.95;7.35;;;-0.40;99.90;;;;;;1826036;77;21139;-72
2022/03/07 06:57:12;;;;;;;12.03;8.45;;;-0.30;99.90;;;;;;1830214;77;21081;-72
2022/03/07 06:59:39;;;;;;;11.15;8.03;;;-0.30;99.90;;;;;;1831198;78;21070;-71
2022/03/07 07:02:07;;;;;;;11.45;8.10;;;-0.10;99.90;;;;;;1826160;78;21081;-71
2022/03/07 07:04:35;;;;;;;15.95;8.00;;;-0.20;99.90;;;;;;1821792;78;21097;-70
2022/03/07 07:07:02;;;;;;;11.78;8.40;;;-0.10;99.90;;;;;;1819148;77;21216;-70
2022/03/07 07:09:30;;;;;;;14.05;7.95;;;0.00;99.90;;;;;;1825822;78;21103;-71
2022/03/07 07:11:57;;;;;;;13.28;7.90;;;0.00;99.90;;;;;;1823893;78;21155;-71
2022/03/07 07:14:27;;;;;;;10.25;7.72;;;-0.10;99.90;;;;;;1822642;78;21105;-73
2022/03/07 07:16:56;;;;;;;11.88;8.53;;;0.00;99.90;;;;;;1814304;78;21173;-71
2022/03/07 07:19:24;;;;;;;10.53;8.35;;;0.10;99.90;;;;;;1816624;78;21089;-71
2022/03/07 07:21:51;;;;;;;19.98;7.85;;;0.10;99.90;;;;;;1828986;78;21054;-70
2022/03/07 07:24:18;;;;;;;11.38;8.20;;;0.10;99.90;;;;;;1825579;78;21097;-71
2022/03/07 07:26:45;;;;;;;16.50;8.83;;;0.20;99.90;;;;;;1820586;78;21062;-71
2022/03/07 07:29:13;;;;;;;11.55;7.85;;;0.30;99.90;;;;;;1828358;78;21174;-70
2022/03/07 07:31:40;;;;;;;10.50;7.85;;;0.40;99.90;;;;;;1812919;79;21158;-70
2022/03/07 07:34:07;;;;;;;9.05;7.67;;;0.50;99.90;;;;;;1814860;78;21086;-72
2022/03/07 07:36:35;;;;;;;13.53;7.83;;;0.60;99.90;;;;;;1825507;78;21085;-71
2022/03/07 07:39:02;;;;;;;11.70;7.22;;;0.50;99.90;;;;;;1827175;78;21203;-71
2022/03/07 07:41:29;;;;;;;9.73;7.87;;;0.60;99.90;;;;;;1823536;78;21087;-73
2022/03/07 07:43:57;;;;;;;11.30;7.70;;;0.70;99.90;;;;;;1813798;78;21253;-72
2022/03/07 07:46:24;;;;;;;11.70;8.10;;;0.70;99.90;;;;;;1811479;79;21132;-71
2022/03/07 07:48:51;;;;;;;20.10;9.43;;;0.70;99.90;;;;;;1794633;79;21495;-70
2022/03/07 07:51:19;;;;;;;11.05;7.20;;;0.80;99.90;;;;;;1821373;77;21180;-71
2022/03/07 07:53:46;;;;;;;14.07;8.55;;;0.90;99.90;;;;;;1836357;77;21081;-70
2022/03/07 07:56:13;;;;;;;13.32;8.00;;;0.90;99.90;;;;;;1835766;77;21086;-71
2022/03/07 07:58:41;;;;;;;10.93;7.70;;;0.90;99.90;;;;;;1827380;77;21207;-72
2022/03/07 08:01:08;;;;;;;9.85;8.35;;;1.00;99.90;;;;;;1826928;77;21095;-70
2022/03/07 08:03:36;;;;;;;9.53;7.30;;;1.10;99.90;;;;;;1808414;78;21176;-71
2022/03/07 08:06:03;;;;;;;13.03;7.40;;;1.20;99.90;;;;;;1821802;77;21499;-71
2022/03/07 08:08:30;;;;;;;11.50;8.65;;;1.20;99.90;;;;;;1829293;77;21070;-71
2022/03/07 08:10:57;;;;;;;11.40;8.00;;;1.40;99.90;;;;;;1835536;77;21085;-71
2022/03/07 08:13:25;;;;;;;12.47;8.23;;;1.20;99.90;;;;;;1835883;77;21221;-71
2022/03/07 08:15:52;;;;;;;10.43;7.62;;;1.30;99.90;;;;;;1800434;77;21129;-70
2022/03/07 08:18:19;;;;;;;13.05;8.13;;;1.50;99.90;;;;;;1811858;78;21522;-70
2022/03/07 08:20:50;;;;;;;9.80;7.58;;;1.60;99.90;;;;;;1811551;78;21086;-71
2022/03/07 08:23:18;;;;;;;10.68;7.78;;;1.80;99.90;;;;;;1836390;77;21480;-71
2022/03/07 08:25:45;;;;;;;10.28;7.47;;;2.10;99.90;;;;;;1827126;77;21208;-72
2022/03/07 08:28:12;;;;;;;13.62;8.08;;;2.00;99.90;;;;;;1833546;77;21089;-72
2022/03/07 08:30:40;;;;;;;9.38;7.00;;;2.20;99.90;;;;;;1834006;77;21098;-70
2022/03/07 08:33:07;;;;;;;10.35;7.08;;;1.90;99.90;;;;;;1834501;77;21421;-70
2022/03/07 08:35:35;;;;;;;8.93;7.30;;;2.10;99.90;;;;;;1826436;77;21093;-72
2022/03/07 08:38:02;;;;;;;10.50;7.37;;;2.20;99.90;;;;;;1831126;77;21257;-72
2022/03/07 08:40:29;;;;;;;10.78;7.90;;;2.20;99.90;;;;;;1819356;78;21513;-71
2022/03/07 08:42:56;;;;;;;10.10;7.65;;;1.80;99.90;;;;;;1821687;77;21176;-71
2022/03/07 08:45:29;;;;;;;10.82;7.28;;;1.80;99.90;;;;;;1827031;77;21066;-72
2022/03/07 08:47:55;;;;;;;11.68;8.00;;;2.10;99.90;;;;;;1817295;78;21179;-71
2022/03/07 08:50:22;;;;;;;9.98;7.87;;;2.40;99.90;;;;;;1833925;77;21234;-71
2022/03/07 08:52:50;;;;;;;11.20;7.62;;;2.70;99.90;;;;;;1823119;78;21081;-72
2022/03/07 08:55:17;;;;;;;12.33;8.25;;;3.00;99.90;;;;;;1825580;78;21050;-72
2022/03/07 08:57:44;;;;;;;9.65;7.05;;;2.90;99.90;;;;;;1830553;77;21062;-72
2022/03/07 09:00:12;;;;;;;10.30;7.47;;;3.10;99.90;;;;;;1823750;78;21058;-71
2022/03/07 09:02:40;;;;;;;9.80;7.08;;;3.60;99.90;;;;;;1800839;78;21493;-69
2022/03/07 09:05:07;;;;;;;10.63;7.42;;;3.80;99.90;;;;;;1832512;77;21164;-72
2022/03/07 09:07:35;;;;;;;12.63;7.58;;;3.80;99.90;;;;;;1826249;77;21167;-71
2022/03/07 09:10:02;;;;;;;10.90;7.30;;;3.60;99.90;;;;;;1834840;77;21184;-71
2022/03/07 09:12:29;;;;;;;10.53;7.47;;;3.80;99.90;;;;;;1827084;78;21426;-71
2022/03/07 09:15:00;;;;;;;10.82;7.55;;;4.00;99.90;;;;;;1840314;77;21074;-73
2022/03/07 09:17:28;;;;;;;7.90;7.05;;;4.20;99.90;;;;;;1834890;77;21470;-72
2022/03/07 09:19:59;;;;;;;8.80;7.70;;;4.10;99.90;;;;;;1826152;77;21086;-71
2022/03/07 09:22:25;;;;;;;9.15;7.58;;;3.40;99.90;;;;;;1825404;77;21056;-72
2022/03/07 09:24:53;;;;;;;10.38;8.08;;;3.30;99.90;;;;;;1818223;77;21530;-71
2022/03/07 09:27:21;;;;;;;10.43;7.05;;;3.80;99.90;;;;;;1843163;77;21093;-72
2022/03/07 09:29:48;;;;;;;10.30;7.37;;;4.30;99.90;;;;;;1826114;77;21459;-71
2022/03/07 09:32:15;;;;;;;9.53;7.35;;;4.10;99.90;;;;;;1825074;77;21140;-71
2022/03/07 09:34:43;;;;;;;9.43;7.50;;;3.40;99.90;;;;;;1833632;77;21109;-72
2022/03/07 09:37:10;;;;;;;16.05;7.92;;;3.30;99.90;;;;;;1828738;77;21164;-72
2022/03/07 09:39:37;;;;;;;15.50;8.15;;;2.90;99.90;;;;;;1818454;78;21160;-71
2022/03/07 09:42:05;;;;;;;12.55;8.33;;;2.80;99.90;;;;;;1832113;77;21130;-71
2022/03/07 09:44:32;;;;;;;10.60;8.05;;;3.10;99.90;;;;;;1820918;78;21118;-72
2022/03/07 09:47:00;;;;;;;8.30;7.40;;;3.50;99.90;;;;;;1824563;77;21066;-72
2022/03/07 09:49:28;;;;;;;11.80;7.95;;;3.60;99.90;;;;;;1824173;77;21101;-73
2022/03/07 09:51:55;;;;;;;9.85;7.70;;;3.30;99.90;;;;;;1822151;78;21082;-71
2022/03/07 09:54:26;;;;;;;17.35;8.13;;;3.10;99.90;;;;;;1825770;78;21119;-72
2022/03/07 09:56:53;;;;;;;11.38;8.43;;;3.00;99.90;;;;;;1840099;77;21113;-72
2022/03/07 09:59:21;;;;;;;7.50;6.65;;;2.90;99.90;;;;;;1832204;77;21081;-72
2022/03/07 10:02:00;;;;;;;13.35;8.43;;;3.30;99.90;;;;;;1834166;77;21102;-71
2022/03/07 10:04:29;;;;;;;9.70;7.28;;;3.20;99.90;;;;;;1816458;78;21074;-72
2022/03/07 10:06:56;;;;;;;12.85;7.45;;;3.30;99.90;;;;;;1829067;78;21097;-72
2022/03/07 10:09:44;;;;;;;9.73;7.70;;;3.40;99.90;;;;;;1812342;78;21070;-74
2022/03/07 10:12:11;;;;;;;11.10;8.18;;;3.60;99.90;;;;;;1825255;78;21469;-71
2022/03/07 10:14:44;;;;;;;11.75;8.55;;;3.70;99.90;;;;;;1835979;77;21078;-73
2022/03/07 10:17:23;;;;;;;10.23;7.30;;;3.80;99.90;;;;;;1819688;78;21520;-71
2022/03/07 10:19:50;;;;;;;10.98;7.33;;;4.50;99.90;;;;;;1824063;78;21462;-71
2022/03/07 10:22:23;;;;;;;12.03;7.78;;;5.20;99.90;;;;;;1827466;77;21178;-71
2022/03/07 10:25:02;;;;;;;11.35;7.47;;;5.00;99.90;;;;;;1826204;77;21273;-72
2022/03/07 10:27:34;;;;;;;10.88;7.78;;;4.30;99.90;;;;;;1813888;78;21559;-74
2022/03/07 10:30:01;;;;;;;14.53;8.23;;;4.50;99.90;;;;;;1812349;78;21424;-72
2022/03/07 10:32:29;;;;;;;9.88;7.42;;;5.00;99.90;;;;;;1811991;78;21497;-71
2022/03/07 10:34:56;;;;;;;10.20;7.47;;;4.90;99.90;;;;;;1815443;78;21282;-71
2022/03/07 10:37:37;;;;;;;8.23;6.70;;;4.60;99.90;;;;;;1817773;78;21210;-70
2022/03/07 10:40:11;;;;;;;9.13;7.22;;;4.60;99.90;;;;;;1822293;77;21093;-72
2022/03/07 10:42:39;;;;;;;11.53;8.08;;;4.30;99.90;;;;;;1821685;76;21493;-73
2022/03/07 10:45:14;;;;;;;8.45;7.45;;;4.20;99.90;;;;;;1803865;78;21218;-72
2022/03/07 10:47:42;;;;;;;9.15;7.42;;;4.10;99.90;;;;;;1835832;77;21062;-70
2022/03/07 10:50:09;;;;;;;10.65;8.03;;;4.10;99.90;;;;;;1829634;77;21077;-71
2022/03/07 10:52:39;;;;;;;8.70;7.20;;;3.70;99.90;;;;;;1790732;77;21177;-71
2022/03/07 10:55:07;;;;;;;12.28;7.85;;;4.50;99.90;;;;;;1810680;78;21239;-71
2022/03/07 10:57:40;;;;;;;9.25;7.30;;;4.40;99.90;;;;;;1819275;77;21525;-70
2022/03/07 11:00:13;;;;;;;8.83;6.92;;;4.30;99.90;;;;;;1821699;77;21132;-71
2022/03/07 11:02:45;;;;;;;8.80;7.00;;;4.30;99.90;;;;;;1826373;78;21147;-72
2022/03/07 11:05:14;;;;;;;9.68;7.92;;;4.10;99.90;;;;;;1825938;78;21309;-72
2022/03/07 11:07:46;;;;;;;9.75;8.28;;;4.00;99.90;;;;;;1812669;78;21129;-71
2022/03/07 11:10:14;;;;;;;14.38;6.92;;;4.20;99.90;;;;;;1809725;79;21545;-70
2022/03/07 11:12:42;;;;;;;11.05;7.95;;;4.40;99.90;;;;;;1824270;78;21062;-72
2022/03/07 11:15:09;;;;;;;12.10;7.70;;;4.40;99.90;;;;;;1825864;77;21275;-71
2022/03/07 11:17:40;;;;;;;13.35;7.58;;;4.30;99.90;;;;;;1839131;77;21173;-71
2022/03/07 11:20:10;;;;;;;11.25;7.85;;;4.20;99.90;;;;;;1829793;76;21056;-72
2022/03/07 11:22:37;;;;;;;13.68;8.95;;;3.90;99.90;;;;;;1834014;77;21081;-74
2022/03/07 11:25:05;;;;;;;11.57;7.78;;;4.40;99.90;;;;;;1830107;77;21071;-72
2022/03/07 11:27:32;;;;;;;13.10;8.03;;;4.50;99.90;;;;;;1817120;77;21085;-73
2022/03/07 11:30:01;;;;;;;9.45;7.67;;;4.50;99.90;;;;;;1818270;77;21090;-72
2022/03/07 11:32:32;;;;;;;13.85;7.90;;;4.50;99.90;;;;;;1798119;78;21155;-73
2022/03/07 11:35:01;;;;;;;12.37;7.25;;;4.40;99.90;;;;;;1830201;77;21443;-72
2022/03/07 11:37:31;;;;;;;9.88;7.37;;;4.80;99.90;;;;;;1821838;77;21147;-72
2022/03/07 11:40:00;;;;;;;11.60;7.83;;;5.00;99.90;;;;;;1821182;78;21572;-72
2022/03/07 11:42:38;;;;;;;12.13;8.08;;;4.50;99.90;;;;;;1830487;77;21141;-73
2022/03/07 11:45:09;;;;;;;10.63;7.85;;;4.60;99.90;;;;;;1829378;78;21539;-71
2022/03/07 11:47:39;;;;;;;10.10;7.47;;;4.40;99.90;;;;;;1825073;77;21168;-72
2022/03/07 11:50:07;;;;;;;11.97;7.30;;;4.30;99.90;;;;;;1819893;77;21098;-72
2022/03/07 11:52:34;;;;;;;12.05;7.60;;;4.40;99.90;;;;;;1821120;78;21276;-71
2022/03/07 11:55:04;;;;;;;8.83;7.42;;;4.60;99.90;;;;;;1821365;78;21507;-73
2022/03/07 11:57:43;;;;;;;10.90;6.60;;;4.60;99.90;;;;;;1818418;78;21094;-71
2022/03/07 12:00:22;;;;;;;7.58;6.72;;;4.70;99.90;;;;;;1817530;77;21155;-72
2022/03/07 12:02:52;;;;;;;9.70;7.03;;;5.00;99.90;;;;;;1831067;78;21089;-71
2022/03/07 12:05:30;;;;;;;12.30;7.35;;;4.90;99.90;;;;;;1835800;77;21092;-73
2022/03/07 12:08:17;;;;;;;9.80;7.55;;;4.90;99.90;;;;;;1826274;77;21067;-71
2022/03/07 12:11:02;;;;;;;8.93;6.60;;;4.80;99.90;;;;;;1832301;77;21189;-70
2022/03/07 12:13:28;;;;;;;11.05;7.30;;;5.00;99.90;;;;;;1817328;78;21475;-73
2022/03/07 12:16:01;;;;;;;9.28;6.92;;;5.30;99.90;;;;;;1818015;78;21102;-71
2022/03/07 12:18:26;;;;;;;9.38;6.83;;;6.10;98.00;;;;;;1826109;77;21446;-72
2022/03/07 12:20:55;;;;;;;9.03;7.25;;;5.90;97.70;;;;;;1838068;77;21211;-72
2022/03/07 12:23:25;;;;;;;9.95;7.15;;;6.30;96.50;;;;;;1824909;77;21097;-70
2022/03/07 12:26:00;;;;;;;12.83;6.70;;;6.20;96.40;;;;;;1824228;77;21232;-71
2022/03/07 12:28:36;;;;;;;10.10;7.53;;;5.70;96.50;;;;;;1838668;77;21259;-67
2022/03/07 12:31:03;;;;;;;12.37;7.60;;;5.60;96.70;;;;;;1833078;77;21094;-73
2022/03/07 12:33:30;;;;;;;14.30;8.23;;;5.80;96.50;;;;;;1836776;77;21172;-71
2022/03/07 12:36:10;;;;;;;9.35;7.35;;;6.20;95.50;;;;;;1816451;78;21486;-72
2022/03/07 12:38:50;;;;;;;10.60;7.00;;;6.20;95.00;;;;;;1825204;78;21511;-72
2022/03/07 12:41:22;;;;;;;8.05;6.50;;;7.30;94.40;;;;;;1829973;78;21151;-71
2022/03/07 12:43:53;;;;;;;12.25;7.22;;;7.90;92.70;;;;;;1832764;77;21107;-72
2022/03/07 12:46:20;;;;;;;8.73;7.20;;;7.10;91.60;;;;;;1829208;77;21081;-73
2022/03/07 12:48:47;;;;;;;9.73;6.92;;;6.90;92.00;;;;;;1828037;77;21170;-71
2022/03/07 12:51:18;;;;;;;10.00;6.47;;;7.20;92.30;;;;;;1814492;78;21134;-71
2022/03/07 12:53:49;;;;;;;8.43;6.17;;;7.60;91.60;;;;;;1828762;77;21106;-72